createdAt,value
2019-04-22T00:00:55.719Z,0.00
2019-04-22T00:01:58.172Z,0.00
2019-04-22T00:02:58.304Z,0.00
2019-04-22T00:04:00.470Z,0.00
2019-04-22T00:05:05.377Z,0.00
2019-04-22T00:06:16.578Z,0.00
2019-04-22T00:07:17.410Z,0.00
2019-04-22T00:08:17.156Z,0.00
2019-04-22T00:09:17.678Z,0.00
2019-04-22T00:10:21.155Z,0.00
2019-04-22T00:11:18.157Z,0.00
2019-04-22T00:12:22.273Z,0.00
2019-04-22T00:13:22.202Z,0.00
2019-04-22T00:14:14.983Z,0.00
2019-04-22T00:15:10.018Z,0.00
2019-04-22T00:16:14.296Z,0.00
2019-04-22T00:17:23.459Z,0.00
2019-04-22T00:18:22.302Z,0.00
2019-04-22T00:19:20.788Z,0.00
2019-04-22T00:20:16.946Z,0.00
2019-04-22T00:21:19.715Z,0.00
2019-04-22T00:23:20.373Z,0.00
2019-04-22T00:24:17.115Z,0.00
2019-04-22T00:25:19.338Z,0.00
2019-04-22T00:26:16.537Z,0.00
2019-04-22T00:27:20.170Z,0.00
2019-04-22T00:28:19.960Z,0.00
2019-04-22T00:29:37.093Z,0.00
2019-04-22T00:30:16.487Z,0.00
2019-04-22T00:31:15.535Z,0.00
2019-04-22T00:32:14.105Z,0.00
2019-04-22T00:33:13.348Z,0.00
2019-04-22T00:34:09.333Z,0.00
2019-04-22T00:35:13.322Z,0.00
2019-04-22T00:36:16.222Z,0.00
2019-04-22T00:37:17.523Z,0.00
2019-04-22T00:38:17.295Z,0.00
2019-04-22T00:39:21.649Z,0.00
2019-04-22T00:40:23.886Z,0.00
2019-04-22T00:41:25.592Z,0.00
2019-04-22T00:42:14.748Z,0.00
2019-04-22T00:43:19.738Z,0.00
2019-04-22T00:44:21.857Z,0.00
2019-04-22T00:45:24.408Z,0.00
2019-04-22T00:46:23.916Z,0.00
2019-04-22T00:47:23.428Z,0.00
2019-04-22T00:48:22.362Z,0.00
2019-04-22T00:49:59.603Z,0.00
2019-04-22T00:50:24.113Z,0.00
2019-04-22T00:51:36.635Z,0.00
2019-04-22T00:52:16.597Z,0.00
2019-04-22T00:53:22.542Z,0.00
2019-04-22T00:54:15.683Z,0.00
2019-04-22T00:55:23.424Z,0.00
2019-04-22T00:56:30.243Z,0.00
2019-04-22T00:57:15.665Z,0.00
2019-04-22T00:58:16.228Z,0.00
2019-04-22T00:59:20.116Z,0.00
2019-04-22T01:00:21.373Z,0.00
2019-04-22T01:02:22.941Z,0.00
2019-04-22T01:03:19.684Z,0.00
2019-04-22T01:04:25.636Z,0.00
2019-04-22T01:05:21.400Z,0.00
2019-04-22T01:06:17.327Z,0.00
2019-04-22T01:07:21.748Z,0.00
2019-04-22T01:08:21.374Z,0.00
2019-04-22T01:09:19.159Z,0.00
2019-04-22T01:10:19.055Z,0.00
2019-04-22T01:11:22.730Z,0.00
2019-04-22T01:12:19.683Z,0.00
2019-04-22T01:13:19.506Z,0.00
2019-04-22T01:14:14.508Z,0.00
2019-04-22T01:15:15.829Z,0.00
2019-04-22T01:16:20.344Z,0.00
2019-04-22T01:17:17.585Z,0.00
2019-04-22T01:18:11.508Z,0.00
2019-04-22T01:19:12.288Z,0.00
2019-04-22T01:20:43.612Z,0.00
2019-04-22T01:21:37.003Z,0.00
2019-04-22T01:22:19.086Z,0.00
2019-04-22T01:23:11.256Z,0.00
2019-04-22T01:24:14.039Z,0.00
2019-04-22T01:25:14.386Z,0.00
2019-04-22T01:26:13.976Z,0.00
2019-04-22T01:27:08.075Z,0.00
2019-04-22T01:28:06.325Z,0.00
2019-04-22T01:29:05.024Z,0.00
2019-04-22T01:30:03.723Z,0.00
2019-04-22T01:31:00.082Z,0.00
2019-04-22T01:31:51.355Z,0.00
2019-04-22T01:32:53.891Z,0.00
2019-04-22T01:34:05.443Z,0.00
2019-04-22T01:35:05.881Z,0.00
2019-04-22T01:36:10.606Z,0.00
2019-04-22T01:37:07.621Z,0.00
2019-04-22T01:38:08.031Z,0.00
2019-04-22T01:39:15.365Z,0.00
2019-04-22T01:40:17.802Z,0.00
2019-04-22T01:41:16.530Z,0.00
2019-04-22T01:42:10.465Z,0.00
2019-04-22T01:43:18.250Z,0.00
2019-04-22T01:44:35.296Z,0.00
2019-04-22T01:45:19.346Z,0.00
2019-04-22T01:46:23.503Z,0.00
2019-04-22T01:47:21.417Z,0.00
2019-04-22T01:48:17.735Z,0.00
2019-04-22T01:49:16.843Z,0.00
2019-04-22T01:50:24.055Z,0.00
2019-04-22T01:51:12.269Z,0.00
2019-04-22T01:52:15.912Z,0.00
2019-04-22T01:53:24.782Z,0.00
2019-04-22T01:54:22.215Z,0.00
2019-04-22T01:55:25.132Z,0.00
2019-04-22T01:56:20.504Z,0.00
2019-04-22T01:57:10.936Z,0.00
2019-04-22T01:58:11.086Z,0.00
2019-04-22T01:59:12.521Z,0.00
2019-04-22T02:00:05.051Z,0.00
2019-04-22T02:01:22.186Z,0.00
2019-04-22T02:02:16.443Z,0.00
2019-04-22T02:03:22.301Z,0.00
2019-04-22T02:04:17.617Z,0.00
2019-04-22T02:05:18.729Z,0.00
2019-04-22T02:06:28.809Z,0.00
2019-04-22T02:07:16.478Z,0.00
2019-04-22T02:08:28.406Z,0.00
2019-04-22T02:09:24.093Z,0.00
2019-04-22T02:10:26.887Z,0.00
2019-04-22T02:11:17.352Z,0.00
2019-04-22T02:13:20.056Z,0.00
2019-04-22T02:14:19.920Z,0.00
2019-04-22T02:15:17.151Z,0.00
2019-04-22T02:16:15.170Z,0.00
2019-04-22T02:17:17.674Z,0.00
2019-04-22T02:19:22.534Z,0.00
2019-04-22T02:20:19.827Z,0.00
2019-04-22T02:21:13.805Z,0.00
2019-04-22T02:22:17.616Z,0.00
2019-04-22T02:23:42.852Z,0.00
2019-04-22T02:24:18.035Z,0.00
2019-04-22T02:25:15.918Z,0.00
2019-04-22T02:26:16.384Z,0.00
2019-04-22T02:27:24.384Z,0.00
2019-04-22T02:28:26.115Z,0.00
2019-04-22T02:29:17.042Z,0.00
2019-04-22T02:30:13.811Z,0.00
2019-04-22T02:31:25.852Z,0.00
2019-04-22T02:32:27.616Z,0.00
2019-04-22T02:33:48.096Z,0.00
2019-04-22T02:35:35.871Z,0.00
2019-04-22T02:37:21.184Z,0.00
2019-04-22T02:38:34.816Z,0.00
2019-04-22T02:39:20.072Z,0.00
2019-04-22T02:40:17.177Z,0.00
2019-04-22T02:42:14.052Z,0.00
2019-04-22T02:43:34.155Z,0.00
2019-04-22T02:44:26.367Z,0.00
2019-04-22T02:45:28.144Z,0.00
2019-04-22T02:48:34.044Z,0.00
2019-04-22T02:50:36.703Z,0.00
2019-04-22T02:52:26.237Z,0.00
2019-04-22T02:53:58.454Z,0.00
2019-04-22T02:55:25.318Z,0.00
2019-04-22T02:56:27.181Z,0.00
2019-04-22T02:58:32.049Z,0.00
2019-04-22T03:00:35.027Z,0.00
2019-04-22T03:01:29.943Z,0.00
2019-04-22T03:03:33.192Z,0.00
2019-04-22T03:04:20.487Z,0.00
2019-04-22T03:05:33.184Z,0.00
2019-04-22T03:07:18.589Z,0.00
2019-04-22T03:08:23.563Z,0.00
2019-04-22T03:12:23.725Z,0.00
2019-04-22T03:13:29.238Z,0.00
2019-04-22T03:14:38.267Z,0.00
2019-04-22T03:15:15.057Z,0.00
2019-04-22T03:17:25.540Z,0.00
2019-04-22T03:18:34.718Z,0.00
2019-04-22T03:20:14.192Z,0.00
2019-04-22T03:21:18.809Z,0.00
2019-04-22T03:23:38.371Z,0.00
2019-04-22T03:24:25.843Z,0.00
2019-04-22T03:25:51.786Z,0.00
2019-04-22T03:26:30.780Z,0.00
2019-04-22T03:27:16.301Z,0.00
2019-04-22T03:28:31.808Z,0.00
2019-04-22T03:29:17.960Z,0.00
2019-04-22T03:30:47.594Z,0.00
2019-04-22T03:31:34.430Z,0.00
2019-04-22T03:33:36.155Z,0.00
2019-04-22T03:35:09.871Z,0.00
2019-04-22T03:37:00.762Z,0.00
2019-04-22T03:37:45.697Z,0.00
2019-04-22T03:38:20.202Z,0.00
2019-04-22T03:39:45.643Z,0.00
2019-04-22T03:41:48.168Z,0.00
2019-04-22T03:42:31.957Z,0.00
2019-04-22T03:43:33.770Z,0.00
2019-04-22T03:45:26.633Z,0.00
2019-04-22T03:46:21.187Z,0.00
2019-04-22T03:47:32.038Z,0.00
2019-04-22T03:48:17.099Z,0.00
2019-04-22T03:50:25.841Z,0.00
2019-04-22T03:51:42.932Z,0.00
2019-04-22T03:53:36.275Z,0.00
2019-04-22T03:54:32.932Z,0.00
2019-04-22T03:55:23.010Z,0.00
2019-04-22T03:56:56.447Z,0.00
2019-04-22T03:57:44.778Z,0.00
2019-04-22T03:58:11.239Z,0.00
2019-04-22T03:59:28.682Z,0.00
2019-04-22T04:00:26.684Z,0.00
2019-04-22T04:01:30.535Z,0.00
2019-04-22T04:04:27.728Z,0.00
2019-04-22T04:05:33.475Z,0.00
2019-04-22T04:06:43.394Z,0.00
2019-04-22T04:07:38.394Z,0.00
2019-04-22T04:08:30.607Z,0.00
2019-04-22T04:09:24.217Z,0.00
2019-04-22T04:10:30.214Z,5.62
2019-04-22T04:11:29.709Z,5.62
2019-04-22T04:12:25.160Z,5.62
2019-04-22T04:13:33.776Z,5.62
2019-04-22T04:16:21.696Z,11.25
2019-04-22T04:17:26.219Z,11.25
2019-04-22T04:18:18.827Z,11.25
2019-04-22T04:20:32.406Z,16.88
2019-04-22T04:22:30.222Z,16.88
2019-04-22T04:26:26.718Z,22.50
2019-04-22T04:27:50.839Z,28.12
2019-04-22T04:34:43.351Z,45.00
2019-04-22T04:35:43.363Z,45.00
2019-04-22T04:37:40.848Z,50.62
2019-04-22T04:38:21.196Z,50.62
2019-04-22T04:41:29.083Z,61.88
2019-04-22T04:43:26.074Z,67.50
2019-04-22T04:45:34.614Z,73.12
2019-04-22T04:46:43.391Z,73.12
2019-04-22T04:47:38.891Z,78.75
2019-04-22T04:48:27.662Z,78.75
2019-04-22T04:49:24.101Z,84.38
2019-04-22T04:51:26.876Z,90.00
2019-04-22T04:54:30.212Z,95.62
2019-04-22T04:55:26.678Z,101.25
2019-04-22T04:57:32.025Z,106.88
2019-04-22T04:58:36.886Z,106.88
2019-04-22T05:00:45.917Z,112.50
2019-04-22T05:01:24.618Z,118.12
2019-04-22T05:04:30.523Z,123.75
2019-04-22T05:05:37.196Z,129.38
2019-04-22T05:06:26.003Z,129.38
2019-04-22T05:07:27.802Z,129.38
2019-04-22T05:08:33.005Z,140.62
2019-04-22T05:11:26.105Z,151.88
2019-04-22T05:13:40.002Z,146.25
2019-04-22T05:14:19.226Z,146.25
2019-04-22T05:15:27.297Z,151.88
2019-04-22T05:17:18.545Z,157.50
2019-04-22T05:19:20.809Z,163.12
2019-04-22T05:20:21.443Z,163.12
2019-04-22T05:21:17.954Z,168.75
2019-04-22T05:22:13.220Z,168.75
2019-04-22T05:23:25.761Z,174.38
2019-04-22T05:24:38.462Z,174.38
2019-04-22T05:25:20.576Z,180.00
2019-04-22T05:26:22.106Z,185.62
2019-04-22T05:27:19.686Z,185.62
2019-04-22T05:28:17.834Z,191.25
2019-04-22T05:29:19.467Z,191.25
2019-04-22T05:31:16.304Z,196.88
2019-04-22T05:32:31.038Z,196.88
2019-04-22T05:33:18.720Z,202.50
2019-04-22T05:34:19.900Z,202.50
2019-04-22T05:35:14.369Z,202.50
2019-04-22T05:36:15.809Z,208.12
2019-04-22T05:37:14.589Z,208.12
2019-04-22T05:38:17.194Z,213.75
2019-04-22T05:39:11.419Z,213.75
2019-04-22T05:40:19.963Z,213.75
2019-04-22T05:41:17.946Z,219.38
2019-04-22T05:42:14.028Z,219.38
2019-04-22T05:43:14.043Z,219.38
2019-04-22T05:44:16.267Z,219.38
2019-04-22T05:45:22.983Z,225.00
2019-04-22T05:46:09.525Z,225.00
2019-04-22T05:47:16.355Z,225.00
2019-04-22T05:48:15.754Z,225.00
2019-04-22T05:49:18.286Z,230.62
2019-04-22T05:50:16.365Z,230.62
2019-04-22T05:51:21.733Z,236.25
2019-04-22T05:52:14.929Z,236.25
2019-04-22T05:53:07.138Z,236.25
2019-04-22T05:54:17.321Z,241.88
2019-04-22T05:55:16.345Z,241.88
2019-04-22T05:56:20.677Z,241.88
2019-04-22T05:57:14.265Z,241.88
2019-04-22T05:58:29.342Z,247.50
2019-04-22T05:59:12.513Z,247.50
2019-04-22T06:00:16.278Z,247.50
2019-04-22T06:02:39.428Z,247.50
2019-04-22T06:03:11.650Z,253.12
2019-04-22T06:05:14.929Z,253.12
2019-04-22T06:06:15.073Z,258.75
2019-04-22T06:07:13.411Z,258.75
2019-04-22T06:08:13.227Z,258.75
2019-04-22T06:10:21.423Z,264.38
2019-04-22T06:11:19.801Z,264.38
2019-04-22T06:12:05.005Z,270.00
2019-04-22T06:13:04.735Z,270.00
2019-04-22T06:14:08.446Z,270.00
2019-04-22T06:15:16.301Z,270.00
2019-04-22T06:16:09.281Z,275.62
2019-04-22T06:17:19.935Z,275.62
2019-04-22T06:18:20.486Z,275.62
2019-04-22T06:19:14.301Z,281.25
2019-04-22T06:20:13.719Z,281.25
2019-04-22T06:21:11.364Z,281.25
2019-04-22T06:22:25.503Z,286.88
2019-04-22T06:23:24.179Z,286.88
2019-04-22T06:24:16.635Z,292.50
2019-04-22T06:25:22.691Z,292.50
2019-04-22T06:27:14.563Z,292.50
2019-04-22T06:28:22.261Z,298.12
2019-04-22T06:29:15.931Z,298.12
2019-04-22T06:30:16.364Z,298.12
2019-04-22T06:31:18.661Z,303.75
2019-04-22T06:33:19.198Z,303.75
2019-04-22T06:34:17.711Z,303.75
2019-04-22T06:35:23.597Z,309.38
2019-04-22T06:36:16.139Z,309.38
2019-04-22T06:39:18.448Z,315.00
2019-04-22T06:40:13.439Z,315.00
2019-04-22T06:41:14.015Z,315.00
2019-04-22T06:42:13.744Z,315.00
2019-04-22T06:46:17.097Z,320.62
2019-04-22T06:47:25.219Z,326.25
2019-04-22T06:49:18.805Z,326.25
2019-04-22T06:50:16.923Z,331.88
2019-04-22T06:51:13.398Z,331.88
2019-04-22T06:52:17.750Z,331.88
2019-04-22T06:53:09.182Z,331.88
2019-04-22T06:54:17.595Z,337.50
2019-04-22T06:55:15.170Z,337.50
2019-04-22T06:56:12.582Z,337.50
2019-04-22T06:57:13.424Z,343.12
2019-04-22T06:58:10.907Z,343.12
2019-04-22T06:59:14.854Z,343.12
2019-04-22T07:00:14.343Z,343.12
2019-04-22T07:01:18.201Z,343.12
2019-04-22T07:02:18.104Z,343.12
2019-04-22T07:04:13.777Z,348.75
2019-04-22T07:05:17.953Z,348.75
2019-04-22T07:06:12.755Z,348.75
2019-04-22T07:07:12.700Z,354.38
2019-04-22T07:08:30.363Z,354.38
2019-04-22T07:10:26.463Z,360.00
2019-04-22T07:11:07.857Z,365.62
2019-04-22T07:12:11.538Z,371.25
2019-04-22T07:13:17.543Z,371.25
2019-04-22T07:14:09.052Z,376.88
2019-04-22T07:15:23.168Z,376.88
2019-04-22T07:16:15.347Z,382.50
2019-04-22T07:17:27.571Z,382.50
2019-04-22T07:18:18.387Z,382.50
2019-04-22T07:19:18.579Z,388.12
2019-04-22T07:20:10.668Z,388.12
2019-04-22T07:21:25.981Z,393.75
2019-04-22T07:23:13.865Z,405.00
2019-04-22T07:24:28.260Z,405.00
2019-04-22T07:25:10.164Z,410.62
2019-04-22T07:26:08.879Z,416.25
2019-04-22T07:28:13.963Z,427.50
2019-04-22T07:29:16.456Z,427.50
2019-04-22T07:30:15.178Z,433.12
2019-04-22T07:31:12.914Z,433.12
2019-04-22T07:32:12.946Z,438.75
2019-04-22T07:33:26.246Z,438.75
2019-04-22T07:35:20.449Z,450.00
2019-04-22T07:36:30.909Z,450.00
2019-04-22T07:37:22.701Z,455.62
2019-04-22T07:38:22.633Z,450.00
2019-04-22T07:39:10.836Z,461.25
2019-04-22T07:40:11.847Z,461.25
2019-04-22T07:41:27.017Z,466.88
2019-04-22T07:42:12.535Z,466.88
2019-04-22T07:43:20.180Z,472.50
2019-04-22T07:45:13.134Z,478.12
2019-04-22T07:46:13.530Z,483.75
2019-04-22T07:48:18.957Z,483.75
2019-04-22T07:49:13.236Z,483.75
2019-04-22T07:50:30.766Z,489.38
2019-04-22T07:51:15.466Z,489.38
2019-04-22T07:52:09.965Z,495.00
2019-04-22T07:53:10.281Z,500.62
2019-04-22T07:54:16.425Z,528.75
2019-04-22T07:55:05.599Z,540.00
2019-04-22T07:56:16.242Z,568.12
2019-04-22T07:59:15.174Z,933.75
2019-04-22T08:00:16.041Z,973.12
2019-04-22T08:01:13.973Z,984.38
2019-04-22T08:02:10.415Z,995.62
2019-04-22T08:04:30.266Z,1018.12
2019-04-22T08:05:13.633Z,1023.75
2019-04-22T08:07:12.367Z,1018.12
2019-04-22T08:08:20.081Z,1023.75
2019-04-22T08:09:16.015Z,1035.00
2019-04-22T08:10:17.022Z,1029.38
2019-04-22T08:11:22.467Z,1063.12
2019-04-22T08:12:02.505Z,1063.12
2019-04-22T08:13:11.726Z,1074.38
2019-04-22T08:14:14.680Z,1080.00
2019-04-22T08:15:12.567Z,1091.25
2019-04-22T08:16:10.324Z,1102.50
2019-04-22T08:18:12.246Z,1113.75
2019-04-22T08:19:15.502Z,1091.25
2019-04-22T08:20:18.785Z,1085.62
2019-04-22T08:21:13.590Z,1136.25
2019-04-22T08:22:07.973Z,1085.62
2019-04-22T08:23:17.865Z,1091.25
2019-04-22T08:24:28.611Z,1136.25
2019-04-22T08:25:10.070Z,1125.00
2019-04-22T08:26:16.780Z,1158.75
2019-04-22T08:27:11.887Z,1164.38
2019-04-22T08:28:13.338Z,1186.88
2019-04-22T08:29:14.819Z,1203.75
2019-04-22T08:30:14.355Z,1209.38
2019-04-22T08:31:14.853Z,1181.25
2019-04-22T08:32:15.204Z,1153.12
2019-04-22T08:33:15.693Z,1170.00
2019-04-22T08:34:14.985Z,1198.12
2019-04-22T08:35:18.454Z,1220.62
2019-04-22T08:36:18.387Z,1209.38
2019-04-22T08:38:14.679Z,1282.50
2019-04-22T08:39:14.104Z,1271.25
2019-04-22T08:40:15.007Z,1282.50
2019-04-22T08:41:18.163Z,1305.00
2019-04-22T08:42:17.957Z,1293.75
2019-04-22T08:44:17.360Z,1321.88
2019-04-22T08:45:14.335Z,1333.12
2019-04-22T08:46:21.653Z,1333.12
2019-04-22T08:47:21.553Z,1327.50
2019-04-22T08:48:07.970Z,1338.75
2019-04-22T08:49:23.222Z,1333.12
2019-04-22T08:51:15.144Z,1338.75
2019-04-22T08:52:18.654Z,1338.75
2019-04-22T08:53:14.211Z,1333.12
2019-04-22T08:54:11.862Z,1338.75
2019-04-22T08:55:12.698Z,1350.00
2019-04-22T08:56:24.060Z,1355.62
2019-04-22T08:57:15.982Z,1355.62
2019-04-22T09:00:08.448Z,1361.25
2019-04-22T09:01:13.660Z,1361.25
2019-04-22T09:02:16.349Z,1344.38
2019-04-22T09:03:11.049Z,1361.25
2019-04-22T09:04:08.489Z,1361.25
2019-04-22T09:05:20.432Z,1372.50
2019-04-22T09:06:19.863Z,1366.88
2019-04-22T09:08:14.159Z,1389.38
2019-04-22T09:09:26.434Z,1389.38
2019-04-22T09:10:15.153Z,1395.00
2019-04-22T09:11:16.472Z,1406.25
2019-04-22T09:12:20.102Z,1417.50
2019-04-22T09:13:14.397Z,1440.00
2019-04-22T09:14:22.571Z,1445.62
2019-04-22T09:15:16.691Z,1451.25
2019-04-22T09:16:17.184Z,1468.12
2019-04-22T09:17:14.781Z,1468.12
2019-04-22T09:18:14.310Z,1451.25
2019-04-22T09:19:12.306Z,1434.38
2019-04-22T09:20:13.230Z,1423.12
2019-04-22T09:22:13.039Z,1428.75
2019-04-22T09:23:14.985Z,1428.75
2019-04-22T09:24:10.297Z,1428.75
2019-04-22T09:25:06.698Z,1440.00
2019-04-22T09:26:10.707Z,1445.62
2019-04-22T09:27:22.663Z,1445.62
2019-04-22T09:28:15.236Z,1445.62
2019-04-22T09:29:12.770Z,1440.00
2019-04-22T09:30:15.105Z,1468.12
2019-04-22T09:31:11.399Z,1501.88
2019-04-22T09:32:16.096Z,1501.88
2019-04-22T09:33:14.077Z,1507.50
2019-04-22T09:34:06.778Z,1507.50
2019-04-22T09:35:09.762Z,1507.50
2019-04-22T09:36:16.824Z,1507.50
2019-04-22T09:38:28.156Z,1513.12
2019-04-22T09:39:10.729Z,1518.75
2019-04-22T09:40:22.344Z,1490.62
2019-04-22T09:41:16.132Z,1490.62
2019-04-22T09:42:11.526Z,1496.25
2019-04-22T09:43:17.171Z,1501.88
2019-04-22T09:44:09.407Z,1501.88
2019-04-22T09:45:13.169Z,1501.88
2019-04-22T09:46:19.690Z,1507.50
2019-04-22T09:47:16.559Z,1530.00
2019-04-22T09:48:16.678Z,1530.00
2019-04-22T09:49:23.778Z,1507.50
2019-04-22T09:50:09.894Z,1507.50
2019-04-22T09:51:11.597Z,1490.62
2019-04-22T09:52:13.083Z,1231.88
2019-04-22T09:53:08.357Z,1068.75
2019-04-22T09:54:17.945Z,1237.50
2019-04-22T09:55:15.393Z,725.62
2019-04-22T09:56:09.773Z,697.50
2019-04-22T09:57:08.980Z,691.88
2019-04-22T09:58:13.492Z,675.00
2019-04-22T09:59:07.723Z,652.50
2019-04-22T10:00:13.987Z,646.88
2019-04-22T10:01:18.699Z,635.62
2019-04-22T10:03:16.036Z,669.38
2019-04-22T10:04:06.443Z,697.50
2019-04-22T10:05:15.111Z,630.00
2019-04-22T10:06:16.528Z,635.62
2019-04-22T10:07:17.622Z,635.62
2019-04-22T10:08:18.284Z,635.62
2019-04-22T10:11:13.422Z,618.75
2019-04-22T10:12:10.164Z,618.75
2019-04-22T10:13:12.865Z,613.12
2019-04-22T10:14:16.942Z,613.12
2019-04-22T10:15:06.451Z,618.75
2019-04-22T10:16:15.426Z,607.50
2019-04-22T10:17:07.786Z,607.50
2019-04-22T10:18:09.332Z,607.50
2019-04-22T10:19:11.088Z,601.88
2019-04-22T10:20:10.218Z,601.88
2019-04-22T10:21:14.482Z,607.50
2019-04-22T10:22:14.957Z,601.88
2019-04-22T10:23:17.670Z,607.50
2019-04-22T10:24:09.190Z,607.50
2019-04-22T10:25:10.453Z,607.50
2019-04-22T10:26:12.986Z,601.88
2019-04-22T10:27:08.158Z,601.88
2019-04-22T10:28:15.658Z,596.25
2019-04-22T10:29:14.072Z,596.25
2019-04-22T10:30:15.116Z,596.25
2019-04-22T10:31:09.947Z,596.25
2019-04-22T10:32:07.058Z,596.25
2019-04-22T10:33:08.799Z,596.25
2019-04-22T10:33:58.498Z,596.25
2019-04-22T10:34:51.230Z,596.25
2019-04-22T10:35:45.630Z,596.25
2019-04-22T10:36:50.453Z,596.25
2019-04-22T10:37:45.987Z,596.25
2019-04-22T10:38:44.534Z,596.25
2019-04-22T10:39:51.306Z,596.25
2019-04-22T10:40:44.891Z,596.25
2019-04-22T10:41:44.299Z,596.25
2019-04-22T10:42:45.170Z,596.25
2019-04-22T10:43:43.768Z,601.88
2019-04-22T10:44:45.215Z,601.88
2019-04-22T10:45:44.002Z,607.50
2019-04-22T10:46:44.359Z,613.12
2019-04-22T10:47:43.700Z,613.12
2019-04-22T10:48:44.256Z,624.38
2019-04-22T10:49:44.483Z,630.00
2019-04-22T10:50:43.639Z,635.62
2019-04-22T10:51:44.494Z,708.75
2019-04-22T10:52:43.642Z,826.88
2019-04-22T10:53:43.837Z,871.88
2019-04-22T10:54:43.652Z,838.12
2019-04-22T10:55:45.288Z,1372.50
2019-04-22T10:56:43.582Z,1485.00
2019-04-22T10:57:44.395Z,1490.62
2019-04-22T10:58:44.641Z,1473.75
2019-04-22T10:59:44.749Z,1456.88
2019-04-22T11:00:43.542Z,1462.50
2019-04-22T11:01:44.429Z,1462.50
2019-04-22T11:02:43.795Z,1451.25
2019-04-22T11:03:43.519Z,1411.88
2019-04-22T11:04:43.977Z,1125.00
2019-04-22T11:05:44.317Z,1018.12
2019-04-22T11:06:52.362Z,922.50
2019-04-22T11:07:53.289Z,995.62
2019-04-22T11:08:52.334Z,1035.00
2019-04-22T11:09:54.439Z,663.75
2019-04-22T11:11:00.638Z,641.25
2019-04-22T11:11:51.087Z,630.00
2019-04-22T11:12:45.194Z,635.62
2019-04-22T11:13:44.124Z,624.38
2019-04-22T11:14:43.433Z,618.75
2019-04-22T11:15:44.607Z,618.75
2019-04-22T11:16:43.631Z,618.75
2019-04-22T11:17:43.824Z,624.38
2019-04-22T11:18:43.465Z,624.38
2019-04-22T11:19:43.580Z,618.75
2019-04-22T11:20:44.010Z,618.75
2019-04-22T11:21:44.663Z,618.75
2019-04-22T11:22:44.647Z,618.75
2019-04-22T11:23:44.671Z,652.50
2019-04-22T11:24:44.356Z,624.38
2019-04-22T11:25:43.930Z,630.00
2019-04-22T11:26:43.298Z,635.62
2019-04-22T11:27:44.398Z,663.75
2019-04-22T11:28:43.484Z,652.50
2019-04-22T11:29:43.599Z,748.12
2019-04-22T11:30:44.606Z,995.62
2019-04-22T11:31:44.343Z,781.88
2019-04-22T11:32:44.499Z,1378.12
2019-04-22T11:33:44.459Z,1265.62
2019-04-22T11:34:43.210Z,1608.75
2019-04-22T11:35:43.801Z,1755.00
2019-04-22T11:36:43.213Z,1867.50
2019-04-22T11:37:43.203Z,1991.25
2019-04-22T11:38:47.141Z,2205.00
2019-04-22T11:39:48.155Z,2379.38
2019-04-22T11:40:49.943Z,2418.75
2019-04-22T11:41:46.313Z,2306.25
2019-04-22T11:42:44.101Z,2340.00
2019-04-22T11:43:43.216Z,2553.75
2019-04-22T11:44:43.554Z,2632.50
2019-04-22T11:45:43.080Z,2435.62
2019-04-22T11:46:43.269Z,2148.75
2019-04-22T11:47:43.328Z,2070.00
2019-04-22T11:48:43.059Z,2351.25
2019-04-22T11:49:43.898Z,2626.88
2019-04-22T11:50:43.973Z,2643.75
2019-04-22T11:51:43.031Z,2587.50
2019-04-22T11:52:43.028Z,2503.12
2019-04-22T11:53:42.990Z,2317.50
2019-04-22T11:54:43.268Z,2295.00
2019-04-22T11:55:42.977Z,2491.88
2019-04-22T11:56:43.076Z,2700.00
2019-04-22T11:57:43.054Z,2986.88
2019-04-22T11:58:42.949Z,3099.38
2019-04-22T11:59:42.942Z,2812.50
2019-04-22T12:00:43.240Z,2643.75
2019-04-22T12:01:42.934Z,2846.25
2019-04-22T12:02:43.079Z,2801.25
2019-04-22T12:03:44.199Z,2671.88
2019-04-22T12:04:43.598Z,2840.62
2019-04-22T12:05:43.914Z,2745.00
2019-04-22T12:06:44.072Z,2497.50
2019-04-22T12:07:42.877Z,2407.50
2019-04-22T12:08:43.722Z,2390.62
2019-04-22T12:09:43.643Z,2694.38
2019-04-22T12:10:50.606Z,2947.50
2019-04-22T12:11:44.434Z,3037.50
2019-04-22T12:12:44.810Z,3020.62
2019-04-22T12:13:44.080Z,3015.00
2019-04-22T12:14:42.805Z,2846.25
2019-04-22T12:15:42.860Z,3037.50
2019-04-22T12:16:43.901Z,3223.12
2019-04-22T12:17:42.783Z,3330.00
2019-04-22T12:18:43.062Z,3324.38
2019-04-22T12:19:44.221Z,3183.75
2019-04-22T12:20:43.356Z,3144.38
2019-04-22T12:21:42.769Z,3155.62
2019-04-22T12:22:42.963Z,3048.75
2019-04-22T12:23:43.434Z,2947.50
2019-04-22T12:24:42.697Z,3161.25
2019-04-22T12:25:51.668Z,3313.12
2019-04-22T12:26:44.212Z,3116.25
2019-04-22T12:27:43.113Z,2846.25
2019-04-22T12:28:42.676Z,2801.25
2019-04-22T12:29:42.972Z,3071.25
2019-04-22T12:30:43.518Z,3397.50
2019-04-22T12:31:42.634Z,3493.12
2019-04-22T12:32:43.563Z,3442.50
2019-04-22T12:33:43.398Z,3121.88
2019-04-22T12:34:43.672Z,2851.88
2019-04-22T12:35:42.592Z,3009.38
2019-04-22T12:36:42.759Z,3065.62
2019-04-22T12:37:49.906Z,2874.38
2019-04-22T12:38:44.990Z,2829.38
2019-04-22T12:39:45.293Z,3166.88
2019-04-22T12:40:51.195Z,3453.75
2019-04-22T12:41:44.336Z,3442.50
2019-04-22T12:42:42.944Z,3459.38
2019-04-22T12:43:43.249Z,3341.25
2019-04-22T12:44:44.110Z,3358.12
2019-04-22T12:45:42.562Z,3560.62
2019-04-22T12:46:43.672Z,3678.75
2019-04-22T12:47:42.474Z,3780.00
2019-04-22T12:48:43.387Z,3780.00
2019-04-22T12:49:46.056Z,3802.50
2019-04-22T12:50:44.471Z,3926.25
2019-04-22T12:51:42.960Z,3909.38
2019-04-22T12:52:50.529Z,3830.62
2019-04-22T12:53:44.583Z,3909.38
2019-04-22T12:54:42.654Z,3763.12
2019-04-22T12:55:43.586Z,3549.38
2019-04-22T12:56:43.864Z,3577.50
2019-04-22T12:57:42.822Z,3639.38
2019-04-22T12:58:43.395Z,3588.75
2019-04-22T12:59:43.638Z,3549.38
2019-04-22T13:00:44.589Z,3571.88
2019-04-22T13:01:42.685Z,3622.50
2019-04-22T13:02:43.116Z,3577.50
2019-04-22T13:03:42.663Z,3628.12
2019-04-22T13:04:43.460Z,3678.75
2019-04-22T13:05:53.870Z,3690.00
2019-04-22T13:06:44.024Z,3645.00
2019-04-22T13:07:44.185Z,3667.50
2019-04-22T13:08:43.578Z,3757.50
2019-04-22T13:09:43.298Z,3633.75
2019-04-22T13:10:53.698Z,3481.88
2019-04-22T13:11:45.872Z,3431.25
2019-04-22T13:12:42.821Z,3487.50
2019-04-22T13:13:42.867Z,3476.25
2019-04-22T13:14:43.337Z,3436.88
2019-04-22T13:15:42.441Z,3526.88
2019-04-22T13:16:42.931Z,3583.12
2019-04-22T13:17:44.213Z,3476.25
2019-04-22T13:18:50.255Z,3515.62
2019-04-22T13:19:44.345Z,3465.00
2019-04-22T13:20:42.217Z,3487.50
2019-04-22T13:21:42.760Z,3611.25
2019-04-22T13:22:43.022Z,3481.88
2019-04-22T13:23:42.136Z,3543.75
2019-04-22T13:24:42.100Z,3628.12
2019-04-22T13:25:42.922Z,3476.25
2019-04-22T13:26:43.068Z,3453.75
2019-04-22T13:27:42.885Z,3493.12
2019-04-22T13:28:43.199Z,3521.25
2019-04-22T13:29:43.482Z,3532.50
2019-04-22T13:30:42.034Z,3521.25
2019-04-22T13:31:42.494Z,3420.00
2019-04-22T13:32:42.981Z,3476.25
2019-04-22T13:33:43.061Z,3543.75
2019-04-22T13:34:46.625Z,3549.38
2019-04-22T13:35:47.810Z,3487.50
2019-04-22T13:36:44.652Z,3532.50
2019-04-22T13:37:43.446Z,3532.50
2019-04-22T13:38:44.899Z,3549.38
2019-04-22T13:39:43.197Z,3543.75
2019-04-22T13:40:59.530Z,3577.50
2019-04-22T13:41:49.825Z,3723.75
2019-04-22T13:42:42.925Z,3605.62
2019-04-22T13:43:42.907Z,3448.12
2019-04-22T13:44:41.909Z,3549.38
2019-04-22T13:45:41.909Z,3346.88
2019-04-22T13:47:02.120Z,3228.75
2019-04-22T13:49:09.637Z,3324.38
2019-04-22T13:50:17.209Z,3386.25
2019-04-22T13:52:22.621Z,3346.88
2019-04-22T13:53:22.088Z,3420.00
2019-04-22T13:54:14.047Z,3324.38
2019-04-22T13:54:40.716Z,3549.38
2019-04-22T13:55:13.656Z,3459.38
2019-04-22T13:56:05.572Z,3470.62
2019-04-22T13:57:01.672Z,3465.00
2019-04-22T13:58:02.614Z,3375.00
2019-04-22T13:58:58.901Z,3352.50
2019-04-22T13:59:46.965Z,3386.25
2019-04-22T14:00:42.764Z,3313.12
2019-04-22T14:01:43.052Z,3369.38
2019-04-22T14:02:42.569Z,3375.00
2019-04-22T14:03:42.825Z,3251.25
2019-04-22T14:04:42.930Z,3279.38
2019-04-22T14:05:42.622Z,3268.12
2019-04-22T14:06:42.876Z,3330.00
2019-04-22T14:07:43.083Z,3408.75
2019-04-22T14:08:43.026Z,3431.25
2019-04-22T14:09:42.296Z,3127.50
2019-04-22T14:10:42.793Z,2818.12